createdAt,value
2019-05-07T00:00:32.774Z,4.12
2019-05-07T00:03:03.433Z,6.17
2019-05-07T00:05:34.498Z,5.17
2019-05-07T00:08:05.602Z,7.55
2019-05-07T00:10:36.754Z,7.60
2019-05-07T00:13:07.832Z,5.53
2019-05-07T00:15:38.839Z,6.97
2019-05-07T00:18:09.925Z,7.15
2019-05-07T00:20:42.350Z,6.53
2019-05-07T00:23:13.574Z,8.98
2019-05-07T00:25:44.822Z,3.92
2019-05-07T00:28:15.854Z,5.33
2019-05-07T00:30:46.926Z,10.38
2019-05-07T00:33:18.031Z,6.00
2019-05-07T00:35:52.948Z,7.33
2019-05-07T00:38:25.144Z,11.35
2019-05-07T00:40:57.904Z,7.08
2019-05-07T00:43:32.223Z,8.33
2019-05-07T00:46:07.728Z,8.18
2019-05-07T00:48:42.243Z,5.95
2019-05-07T00:51:24.119Z,8.58
2019-05-07T00:53:55.252Z,3.80
2019-05-07T00:56:26.294Z,8.83
2019-05-07T00:58:57.719Z,5.75
2019-05-07T01:01:28.877Z,4.92
2019-05-07T01:04:02.464Z,7.45
2019-05-07T01:06:33.240Z,7.58
2019-05-07T01:09:06.026Z,13.15
2019-05-07T01:11:37.152Z,6.42
2019-05-07T01:14:08.224Z,4.30
2019-05-07T01:16:41.898Z,8.65
2019-05-07T01:19:13.247Z,6.35
2019-05-07T01:21:44.365Z,4.97
2019-05-07T01:24:15.351Z,7.17
2019-05-07T01:26:46.399Z,8.05
2019-05-07T01:29:17.363Z,5.50
2019-05-07T01:31:59.251Z,5.97
2019-05-07T01:34:34.537Z,8.18
2019-05-07T01:37:05.643Z,4.62
2019-05-07T01:39:36.826Z,8.55
2019-05-07T01:42:08.021Z,5.80
2019-05-07T01:44:39.018Z,5.72
2019-05-07T01:47:10.222Z,5.65
2019-05-07T01:49:42.169Z,4.60
2019-05-07T01:52:13.548Z,15.70
2019-05-07T01:54:47.382Z,4.67
2019-05-07T01:57:17.371Z,6.83
2019-05-07T01:59:48.429Z,7.28
2019-05-07T02:02:22.911Z,8.45
2019-05-07T02:05:03.213Z,8.78
2019-05-07T02:07:37.948Z,11.20
2019-05-07T02:10:11.949Z,16.40
2019-05-07T02:12:43.128Z,8.30
2019-05-07T02:15:14.192Z,8.45
2019-05-07T02:17:45.331Z,8.88
2019-05-07T02:20:16.295Z,8.58
2019-05-07T02:22:47.409Z,7.35
2019-05-07T02:25:18.531Z,11.53
2019-05-07T02:27:49.599Z,5.97
2019-05-07T02:30:23.638Z,10.00
2019-05-07T02:32:55.302Z,8.40
2019-05-07T02:35:26.367Z,8.83
2019-05-07T02:37:59.146Z,4.58
2019-05-07T02:40:44.175Z,7.42
2019-05-07T02:43:15.341Z,8.23
2019-05-07T02:45:47.920Z,15.75
2019-05-07T02:48:23.756Z,7.30
2019-05-07T02:51:04.182Z,11.60
2019-05-07T02:53:43.579Z,5.97
2019-05-07T02:56:14.616Z,5.67
2019-05-07T02:58:45.857Z,5.12
2019-05-07T03:01:17.001Z,5.10
2019-05-07T03:03:48.213Z,5.90
2019-05-07T03:06:19.388Z,9.70
2019-05-07T03:08:53.248Z,5.20
2019-05-07T03:11:23.162Z,8.48
2019-05-07T03:13:54.363Z,7.90
2019-05-07T03:16:38.673Z,6.97
2019-05-07T03:18:59.460Z,7.17
2019-05-07T03:21:32.888Z,7.50
2019-05-07T03:24:05.821Z,8.25
2019-05-07T03:26:38.455Z,8.55
2019-05-07T03:29:13.092Z,6.12
2019-05-07T03:31:55.654Z,6.25
2019-05-07T03:34:27.725Z,3.95
2019-05-07T03:37:05.600Z,8.18
2019-05-07T03:39:33.772Z,6.92
2019-05-07T03:42:05.094Z,4.20
2019-05-07T03:44:48.657Z,8.08
2019-05-07T03:47:36.452Z,6.10
2019-05-07T03:50:09.130Z,7.25
2019-05-07T03:52:42.880Z,6.15
2019-05-07T03:55:14.438Z,7.15
2019-05-07T03:57:45.870Z,6.70
2019-05-07T04:00:17.282Z,9.55
2019-05-07T04:02:48.432Z,7.47
2019-05-07T04:05:19.546Z,5.58
2019-05-07T04:07:53.708Z,10.05
2019-05-07T04:10:23.485Z,8.55
2019-05-07T04:12:55.177Z,7.53
2019-05-07T04:15:26.184Z,6.20
2019-05-07T04:17:57.353Z,4.37
2019-05-07T04:20:28.445Z,6.92
2019-05-07T04:22:59.671Z,6.83
2019-05-07T04:25:34.607Z,6.83
2019-05-07T04:28:19.183Z,8.48
2019-05-07T04:30:53.196Z,7.65
2019-05-07T04:33:24.912Z,12.05
2019-05-07T04:36:06.735Z,8.18
2019-05-07T04:38:37.828Z,7.08
2019-05-07T04:41:08.854Z,7.33
2019-05-07T04:43:43.191Z,8.30
2019-05-07T04:46:14.404Z,6.25
2019-05-07T04:48:45.541Z,10.55
2019-05-07T04:51:18.229Z,7.85
2019-05-07T04:53:49.319Z,7.05
2019-05-07T04:56:23.885Z,9.83
2019-05-07T04:58:54.030Z,14.80
2019-05-07T05:01:26.729Z,8.65
2019-05-07T05:03:57.687Z,14.68
2019-05-07T05:06:28.760Z,8.58
2019-05-07T05:09:02.768Z,5.47
2019-05-07T05:11:33.754Z,7.92
2019-05-07T05:14:07.803Z,8.38
2019-05-07T05:16:37.811Z,6.55
2019-05-07T05:19:09.078Z,13.00
2019-05-07T05:21:58.353Z,11.93
2019-05-07T05:24:32.979Z,7.83
2019-05-07T05:27:03.882Z,12.85
2019-05-07T05:29:36.178Z,6.28
2019-05-07T05:32:07.144Z,7.12
2019-05-07T05:34:38.236Z,8.63
2019-05-07T05:37:09.309Z,10.78
2019-05-07T05:39:42.633Z,11.78
2019-05-07T05:42:18.564Z,8.85
2019-05-07T05:44:49.628Z,7.75
2019-05-07T05:47:22.191Z,9.25
2019-05-07T05:49:53.494Z,11.08
2019-05-07T05:52:32.748Z,9.73
2019-05-07T05:55:05.594Z,7.58
2019-05-07T05:57:38.409Z,13.25
2019-05-07T06:00:16.939Z,12.18
2019-05-07T06:02:58.652Z,9.90
2019-05-07T06:05:43.541Z,10.15
2019-05-07T06:08:28.625Z,20.90
2019-05-07T06:11:02.262Z,14.95
2019-05-07T06:13:35.090Z,9.75
2019-05-07T06:16:08.099Z,17.15
2019-05-07T06:18:56.979Z,9.73
2019-05-07T06:21:32.410Z,12.53
2019-05-07T06:24:17.143Z,17.25
2019-05-07T06:26:48.307Z,14.05
2019-05-07T06:29:20.190Z,9.33
2019-05-07T06:32:06.002Z,9.00
2019-05-07T06:34:36.917Z,6.83
2019-05-07T06:37:09.006Z,8.83
2019-05-07T06:39:42.164Z,6.85
2019-05-07T06:42:30.032Z,9.63
2019-05-07T06:45:08.598Z,13.72
2019-05-07T06:47:39.798Z,15.50
2019-05-07T06:50:12.494Z,12.07
2019-05-07T06:52:44.865Z,16.93
2019-05-07T06:55:15.898Z,24.07
2019-05-07T06:57:47.036Z,26.00
2019-05-07T07:00:25.510Z,26.12
2019-05-07T07:03:02.017Z,27.98
2019-05-07T07:05:34.836Z,40.88
2019-05-07T07:08:23.120Z,45.85
2019-05-07T07:11:12.858Z,43.85
2019-05-07T07:13:43.758Z,29.40
2019-05-07T07:16:14.982Z,32.40
2019-05-07T07:18:51.812Z,38.88
2019-05-07T07:21:18.829Z,22.52
2019-05-07T07:23:52.268Z,21.73
2019-05-07T07:26:22.749Z,15.28
2019-05-07T07:28:53.845Z,12.55
2019-05-07T07:31:31.905Z,7.40
2019-05-07T07:34:04.343Z,9.40
2019-05-07T07:36:42.243Z,14.23
2019-05-07T07:39:13.092Z,15.38
2019-05-07T07:41:45.832Z,17.50
2019-05-07T07:44:17.135Z,13.70
2019-05-07T07:46:48.307Z,12.55
2019-05-07T07:49:19.376Z,14.28
2019-05-07T07:51:52.398Z,10.03
2019-05-07T07:54:23.348Z,13.20
2019-05-07T07:57:16.261Z,11.28
2019-05-07T07:59:52.957Z,16.25
2019-05-07T08:02:25.933Z,14.80
2019-05-07T08:04:57.235Z,10.88
2019-05-07T08:07:28.428Z,24.95
2019-05-07T08:09:59.893Z,14.60
2019-05-07T08:12:32.667Z,11.83
2019-05-07T08:15:16.670Z,24.10
2019-05-07T08:17:37.791Z,12.98
2019-05-07T08:20:09.066Z,7.47
2019-05-07T08:22:42.237Z,10.10
2019-05-07T08:25:12.952Z,7.42
2019-05-07T08:27:44.240Z,13.88
2019-05-07T08:30:17.168Z,18.07
2019-05-07T08:32:53.005Z,17.05
2019-05-07T08:35:43.486Z,12.93
2019-05-07T08:38:16.453Z,7.05
2019-05-07T08:40:48.928Z,11.63
2019-05-07T08:43:21.866Z,16.62
2019-05-07T08:45:54.833Z,20.27
2019-05-07T08:48:27.400Z,16.50
2019-05-07T08:50:58.614Z,9.43
2019-05-07T08:53:29.657Z,9.23
2019-05-07T08:56:03.312Z,9.23
2019-05-07T08:58:34.458Z,16.15
2019-05-07T09:01:05.697Z,14.30
2019-05-07T09:03:43.149Z,29.18
2019-05-07T09:06:15.018Z,9.45
2019-05-07T09:08:46.163Z,9.55
2019-05-07T09:11:17.313Z,14.28
2019-05-07T09:13:48.385Z,10.78
2019-05-07T09:16:19.528Z,12.10
2019-05-07T09:18:52.502Z,15.98
2019-05-07T09:21:23.529Z,10.10
2019-05-07T09:23:54.583Z,8.68
2019-05-07T09:26:27.293Z,8.30
2019-05-07T09:29:08.837Z,15.65
2019-05-07T09:31:52.559Z,34.18
2019-05-07T09:34:27.721Z,9.83
2019-05-07T09:37:06.582Z,28.57
2019-05-07T09:39:37.825Z,39.92
2019-05-07T09:42:09.033Z,22.00
2019-05-07T09:44:40.152Z,23.50
2019-05-07T09:47:13.195Z,28.95
2019-05-07T09:49:44.304Z,11.65
2019-05-07T09:52:15.437Z,16.00
2019-05-07T09:54:46.987Z,15.58
2019-05-07T09:57:28.266Z,18.27
2019-05-07T09:59:53.124Z,19.98
2019-05-07T10:02:24.923Z,15.95
2019-05-07T10:04:55.937Z,10.15
2019-05-07T10:07:27.087Z,13.08
2019-05-07T10:09:58.174Z,9.88
2019-05-07T10:12:32.832Z,9.70
2019-05-07T10:15:04.158Z,18.05
2019-05-07T10:17:37.047Z,23.80
2019-05-07T10:20:19.160Z,21.33
2019-05-07T10:22:42.860Z,11.05
2019-05-07T10:25:14.104Z,13.93
2019-05-07T10:27:46.254Z,19.00
2019-05-07T10:30:17.807Z,15.58
2019-05-07T10:32:48.970Z,9.23
2019-05-07T10:35:20.188Z,13.68
2019-05-07T10:37:52.831Z,9.40
2019-05-07T10:40:25.106Z,9.05
2019-05-07T10:42:56.248Z,15.98
2019-05-07T10:45:29.102Z,7.67
2019-05-07T10:48:17.791Z,13.45
2019-05-07T10:50:51.722Z,12.75
2019-05-07T10:53:23.069Z,11.57
2019-05-07T10:55:54.154Z,12.28
2019-05-07T10:58:25.122Z,14.35
2019-05-07T11:00:56.699Z,11.88
2019-05-07T11:03:27.935Z,8.30
2019-05-07T11:05:58.934Z,12.37
2019-05-07T11:08:30.051Z,21.55
2019-05-07T11:11:02.980Z,12.45
2019-05-07T11:13:33.899Z,10.85
2019-05-07T11:16:07.909Z,14.70
2019-05-07T11:18:42.533Z,10.20
2019-05-07T11:21:13.556Z,11.00
2019-05-07T11:23:44.700Z,9.88
2019-05-07T11:26:15.713Z,7.65
2019-05-07T11:28:47.019Z,12.33
2019-05-07T11:31:18.165Z,10.75
2019-05-07T11:33:49.222Z,12.03
2019-05-07T11:36:20.260Z,14.47
2019-05-07T11:38:52.708Z,7.90
2019-05-07T11:41:25.516Z,12.55
2019-05-07T11:44:01.775Z,9.38
2019-05-07T11:46:34.737Z,14.90
2019-05-07T11:49:07.437Z,12.78
2019-05-07T11:51:42.897Z,11.00
2019-05-07T11:56:45.439Z,17.37
2019-05-07T11:59:16.514Z,12.93
2019-05-07T12:01:49.107Z,14.33
2019-05-07T12:04:27.869Z,18.07
2019-05-07T12:06:58.049Z,17.27
2019-05-07T12:09:29.087Z,17.05
2019-05-07T12:12:02.319Z,13.98
2019-05-07T12:14:34.981Z,17.12
2019-05-07T12:17:05.882Z,9.53
2019-05-07T12:19:36.916Z,12.30
2019-05-07T12:22:08.025Z,14.55
2019-05-07T12:24:39.315Z,18.57
2019-05-07T12:27:11.937Z,13.68
2019-05-07T12:29:43.140Z,9.75
2019-05-07T12:32:18.755Z,24.20
2019-05-07T12:35:02.241Z,10.50
2019-05-07T12:37:37.086Z,10.25
2019-05-07T12:40:08.057Z,14.58
2019-05-07T12:42:39.092Z,12.88
2019-05-07T12:45:12.508Z,13.68
2019-05-07T12:47:43.055Z,10.35
2019-05-07T12:50:14.109Z,14.10
2019-05-07T12:52:54.566Z,11.60
2019-05-07T12:55:33.409Z,10.80
2019-05-07T12:58:05.587Z,12.60
2019-05-07T13:00:44.510Z,9.35
2019-05-07T13:03:29.050Z,10.88
2019-05-07T13:06:02.367Z,10.55
2019-05-07T13:08:33.110Z,11.00
2019-05-07T13:11:05.417Z,13.83
2019-05-07T13:13:36.504Z,21.73
2019-05-07T13:16:07.614Z,14.33
2019-05-07T13:18:38.701Z,17.52
2019-05-07T13:21:11.795Z,21.60
2019-05-07T13:23:42.683Z,14.35
2019-05-07T13:26:13.675Z,17.25
2019-05-07T13:28:45.731Z,12.33
2019-05-07T13:31:17.781Z,15.18
2019-05-07T13:33:49.755Z,16.60
2019-05-07T13:36:22.094Z,16.73
2019-05-07T13:39:11.206Z,24.10
2019-05-07T13:41:43.979Z,21.73
2019-05-07T13:44:26.079Z,23.57
2019-05-07T13:47:15.499Z,19.70
2019-05-07T13:49:47.225Z,47.88
2019-05-07T13:52:18.473Z,49.35
2019-05-07T13:54:52.618Z,56.70
2019-05-07T13:57:23.782Z,73.07
2019-05-07T13:59:54.941Z,54.83
2019-05-07T14:02:27.638Z,53.17
2019-05-07T14:04:58.840Z,38.25
2019-05-07T14:07:32.658Z,41.55
2019-05-07T14:10:04.179Z,31.62
2019-05-07T14:12:35.406Z,32.80
2019-05-07T14:15:07.066Z,24.35
2019-05-07T14:17:38.275Z,26.27
2019-05-07T14:20:12.958Z,31.62
2019-05-07T14:22:43.842Z,29.00
2019-05-07T14:25:15.182Z,19.95
2019-05-07T14:27:46.330Z,24.75
2019-05-07T14:30:17.403Z,23.77
2019-05-07T14:32:53.558Z,33.73
2019-05-07T14:35:26.389Z,27.50
2019-05-07T14:38:05.535Z,14.15
2019-05-07T14:40:36.544Z,20.48
2019-05-07T14:43:09.232Z,31.52
2019-05-07T14:45:42.196Z,19.73
2019-05-07T14:48:13.351Z,27.85
2019-05-07T14:50:45.017Z,20.57
2019-05-07T14:53:16.806Z,33.10
2019-05-07T14:55:48.266Z,32.03
2019-05-07T14:58:21.539Z,24.00
2019-05-07T15:00:52.876Z,24.82
2019-05-07T15:03:24.193Z,21.25
2019-05-07T15:05:55.655Z,21.62
2019-05-07T15:08:27.318Z,17.00
2019-05-07T15:10:59.086Z,16.82
2019-05-07T15:13:32.831Z,22.05
2019-05-07T15:16:07.297Z,16.82
2019-05-07T15:21:32.138Z,15.20
2019-05-07T15:24:06.044Z,14.45
2019-05-07T15:26:37.897Z,35.20
2019-05-07T15:29:12.068Z,27.50
2019-05-07T15:32:03.192Z,23.07
2019-05-07T15:34:34.005Z,26.60
2019-05-07T15:37:08.906Z,30.40
2019-05-07T15:39:44.531Z,37.05
2019-05-07T15:42:16.652Z,23.85
2019-05-07T15:44:48.029Z,14.68
2019-05-07T15:47:26.623Z,17.95
2019-05-07T15:49:58.262Z,25.68
2019-05-07T15:52:58.389Z,22.67
2019-05-07T15:55:26.163Z,24.27
2019-05-07T15:57:57.853Z,29.63
2019-05-07T16:00:33.317Z,31.12
2019-05-07T16:03:12.160Z,35.68
2019-05-07T16:05:45.223Z,31.87
2019-05-07T16:08:22.656Z,27.82
2019-05-07T16:10:56.006Z,25.97
2019-05-07T16:13:35.052Z,28.07
2019-05-07T16:16:06.796Z,17.62
2019-05-07T16:18:42.153Z,20.10
2019-05-07T16:21:19.081Z,20.43
2019-05-07T16:23:54.864Z,20.70
2019-05-07T16:26:26.150Z,24.07
2019-05-07T16:28:57.406Z,22.37
2019-05-07T16:31:28.513Z,15.53
2019-05-07T16:33:59.563Z,23.20
2019-05-07T16:36:32.633Z,15.60
2019-05-07T16:39:04.230Z,23.70
2019-05-07T16:41:37.095Z,17.35
2019-05-07T16:44:08.031Z,26.12
2019-05-07T16:46:39.220Z,32.98
2019-05-07T16:49:12.097Z,25.65
2019-05-07T16:51:44.755Z,17.57
2019-05-07T16:54:15.957Z,16.57
2019-05-07T16:57:05.467Z,19.05
2019-05-07T16:59:36.475Z,18.02
2019-05-07T17:02:09.110Z,22.87
2019-05-07T17:04:42.520Z,22.90
2019-05-07T17:07:15.488Z,26.57
2019-05-07T17:09:46.565Z,21.70
2019-05-07T17:12:19.282Z,24.27
2019-05-07T17:14:51.804Z,26.37
2019-05-07T17:17:23.022Z,29.30
2019-05-07T17:19:54.026Z,23.27
2019-05-07T17:22:25.160Z,22.02
2019-05-07T17:24:58.234Z,15.58
2019-05-07T17:27:29.409Z,17.60
2019-05-07T17:30:02.968Z,12.65
2019-05-07T17:32:34.617Z,18.35
2019-05-07T17:35:05.562Z,21.55
2019-05-07T17:37:36.552Z,25.62
2019-05-07T17:40:08.046Z,25.48
2019-05-07T17:42:39.187Z,21.27
2019-05-07T17:45:12.187Z,22.50
2019-05-07T17:47:43.056Z,28.55
2019-05-07T17:50:15.712Z,23.20
2019-05-07T17:52:46.809Z,26.93
2019-05-07T17:55:17.750Z,30.65
2019-05-07T17:57:48.885Z,25.82
2019-05-07T18:00:22.097Z,30.92
2019-05-07T18:02:54.849Z,28.45
2019-05-07T18:05:25.900Z,34.55
2019-05-07T18:07:57.133Z,33.30
2019-05-07T18:10:28.202Z,41.90
2019-05-07T18:12:59.257Z,27.15
2019-05-07T18:15:32.262Z,29.10
2019-05-07T18:18:07.645Z,33.30
2019-05-07T18:23:13.345Z,34.05
2019-05-07T18:25:42.857Z,25.92
2019-05-07T18:28:16.078Z,30.05
2019-05-07T18:30:46.991Z,37.55
2019-05-07T18:33:21.989Z,27.60
2019-05-07T18:35:52.737Z,24.95
2019-05-07T18:38:23.942Z,26.40
2019-05-07T18:40:55.047Z,24.18
2019-05-07T18:43:26.269Z,19.82
2019-05-07T18:45:57.334Z,28.92
2019-05-07T18:48:28.443Z,18.90
2019-05-07T18:50:59.559Z,21.82
2019-05-07T18:53:31.784Z,26.60
2019-05-07T18:56:02.953Z,26.17
2019-05-07T18:58:34.157Z,21.37
2019-05-07T19:01:09.799Z,33.05
2019-05-07T19:03:41.985Z,18.95
2019-05-07T19:06:13.567Z,20.88
2019-05-07T19:08:44.741Z,20.10
2019-05-07T19:11:15.768Z,23.65
2019-05-07T19:13:46.721Z,26.82
2019-05-07T19:16:17.735Z,30.32
2019-05-07T19:18:48.923Z,26.37
2019-05-07T19:21:22.218Z,22.05
2019-05-07T19:23:53.083Z,37.85
2019-05-07T19:26:24.417Z,23.70
2019-05-07T19:28:55.493Z,24.72
2019-05-07T19:31:26.606Z,31.30
2019-05-07T19:33:57.966Z,23.67
2019-05-07T19:36:28.887Z,28.92
2019-05-07T19:39:01.979Z,28.87
2019-05-07T19:41:34.272Z,27.07
2019-05-07T19:44:05.385Z,23.65
2019-05-07T19:46:37.452Z,32.98
2019-05-07T19:49:08.576Z,27.73
2019-05-07T19:51:39.603Z,32.63
2019-05-07T19:54:10.784Z,23.00
2019-05-07T19:56:43.203Z,21.95
2019-05-07T19:59:14.278Z,36.08
2019-05-07T20:01:46.999Z,29.27
2019-05-07T20:04:18.088Z,25.00
2019-05-07T20:06:49.052Z,28.67
2019-05-07T20:09:21.718Z,30.23
2019-05-07T20:11:52.746Z,30.02
2019-05-07T20:14:23.947Z,25.72
2019-05-07T20:16:55.009Z,26.55
2019-05-07T20:19:25.975Z,27.98
2019-05-07T20:21:57.044Z,28.30
2019-05-07T20:24:28.162Z,27.05
2019-05-07T20:26:59.101Z,21.93
2019-05-07T20:29:32.157Z,20.68
2019-05-07T20:32:03.223Z,22.17
2019-05-07T20:34:34.228Z,23.47
2019-05-07T20:37:05.286Z,23.02
2019-05-07T20:39:36.328Z,17.92
2019-05-07T20:42:07.393Z,17.35
2019-05-07T20:44:42.616Z,20.65
2019-05-07T20:47:14.943Z,18.92
2019-05-07T20:49:45.982Z,18.65
2019-05-07T20:52:17.058Z,23.07
2019-05-07T20:54:59.599Z,20.05
2019-05-07T20:57:35.160Z,21.05
2019-05-07T21:02:47.201Z,18.07
2019-05-07T21:05:11.539Z,19.90
2019-05-07T21:07:42.619Z,27.67
2019-05-07T21:10:13.574Z,28.95
2019-05-07T21:12:44.662Z,27.17
2019-05-07T21:15:15.757Z,32.10
2019-05-07T21:17:46.972Z,33.90
2019-05-07T21:20:18.048Z,40.05
2019-05-07T21:22:49.222Z,36.88
2019-05-07T21:25:22.585Z,25.85
2019-05-07T21:27:53.240Z,31.02
2019-05-07T21:30:24.337Z,30.48
2019-05-07T21:32:55.358Z,30.50
2019-05-07T21:35:26.561Z,29.80
2019-05-07T21:37:57.609Z,25.97
2019-05-07T21:40:31.925Z,29.87
2019-05-07T21:43:02.596Z,20.75
2019-05-07T21:45:33.646Z,15.80
2019-05-07T21:48:04.687Z,17.87
2019-05-07T21:50:35.811Z,12.95
2019-05-07T21:53:22.723Z,17.57
2019-05-07T21:56:06.980Z,14.33
2019-05-07T21:58:46.492Z,16.93
2019-05-07T22:01:24.727Z,16.73
2019-05-07T22:03:56.923Z,22.98
2019-05-07T22:06:27.967Z,26.82
2019-05-07T22:08:58.948Z,16.50
2019-05-07T22:11:32.139Z,21.75
2019-05-07T22:14:02.760Z,19.57
2019-05-07T22:16:33.798Z,19.07
2019-05-07T22:19:05.192Z,20.25
2019-05-07T22:21:36.278Z,19.92
2019-05-07T22:24:07.427Z,24.40
2019-05-07T22:26:38.386Z,20.48
2019-05-07T22:29:09.415Z,22.22
2019-05-07T22:31:44.107Z,19.23
2019-05-07T22:34:22.407Z,16.62
2019-05-07T22:36:54.968Z,18.95
2019-05-07T22:39:36.908Z,16.30
2019-05-07T22:42:11.742Z,18.77
2019-05-07T22:44:42.613Z,17.40
2019-05-07T22:47:22.781Z,21.60
2019-05-07T22:49:53.606Z,18.25
2019-05-07T22:52:25.056Z,19.02
2019-05-07T22:54:56.116Z,14.43
2019-05-07T22:57:32.632Z,22.35
2019-05-07T23:00:07.300Z,21.45
2019-05-07T23:02:39.847Z,20.43
2019-05-07T23:05:12.204Z,19.25
2019-05-07T23:07:44.071Z,15.80
2019-05-07T23:10:15.204Z,14.70
2019-05-07T23:12:46.318Z,17.27
2019-05-07T23:15:17.408Z,16.12
2019-05-07T23:17:51.298Z,22.65
2019-05-07T23:20:24.418Z,21.60
2019-05-07T23:22:55.239Z,20.25
2019-05-07T23:25:26.242Z,24.12
2019-05-07T23:27:57.262Z,17.55
2019-05-07T23:30:28.373Z,14.90
2019-05-07T23:32:59.425Z,18.10
2019-05-07T23:35:32.747Z,18.30
2019-05-07T23:38:03.301Z,16.70
2019-05-07T23:40:45.024Z,19.42
2019-05-07T23:43:17.699Z,18.92
2019-05-07T23:45:48.626Z,19.67
2019-05-07T23:48:19.725Z,19.30
2019-05-07T23:50:52.537Z,18.73
2019-05-07T23:53:23.753Z,21.73
2019-05-07T23:55:54.715Z,19.57
2019-05-07T23:58:25.897Z,20.15
